sensor_id;sensor_type;location;lat;lon;timestamp;P1;durP1;ratioP1;P2;durP2;ratioP2
14121;SDS011;7139;48.114;11.442;2023-12-22T00:00:37;0.80;;;0.80;;
14121;SDS011;7139;48.114;11.442;2023-12-22T00:03:04;2.20;;;0.87;;
14121;SDS011;7139;48.114;11.442;2023-12-22T00:05:31;0.80;;;0.70;;
14121;SDS011;7139;48.114;11.442;2023-12-22T00:07:58;1.50;;;0.90;;
14121;SDS011;7139;48.114;11.442;2023-12-22T00:10:25;2.23;;;1.00;;
14121;SDS011;7139;48.114;11.442;2023-12-22T00:12:54;3.40;;;0.83;;
14121;SDS011;7139;48.114;11.442;2023-12-22T00:15:21;0.70;;;0.70;;
14121;SDS011;7139;48.114;11.442;2023-12-22T00:17:48;2.43;;;0.87;;
14121;SDS011;7139;48.114;11.442;2023-12-22T00:20:15;2.07;;;0.90;;
14121;SDS011;7139;48.114;11.442;2023-12-22T00:22:42;0.50;;;0.50;;
14121;SDS011;7139;48.114;11.442;2023-12-22T00:25:09;1.90;;;0.60;;
14121;SDS011;7139;48.114;11.442;2023-12-22T00:27:36;0.73;;;0.53;;
14121;SDS011;7139;48.114;11.442;2023-12-22T00:30:06;1.10;;;0.60;;
14121;SDS011;7139;48.114;11.442;2023-12-22T00:32:33;0.43;;;0.43;;
14121;SDS011;7139;48.114;11.442;2023-12-22T00:35:00;0.50;;;0.50;;
14121;SDS011;7139;48.114;11.442;2023-12-22T00:37:27;0.40;;;0.40;;
14121;SDS011;7139;48.114;11.442;2023-12-22T00:39:54;1.40;;;0.50;;
14121;SDS011;7139;48.114;11.442;2023-12-22T00:42:21;0.40;;;0.40;;
14121;SDS011;7139;48.114;11.442;2023-12-22T00:44:48;0.73;;;0.53;;
14121;SDS011;7139;48.114;11.442;2023-12-22T00:47:17;1.07;;;0.60;;
14121;SDS011;7139;48.114;11.442;2023-12-22T00:49:44;0.43;;;0.43;;
14121;SDS011;7139;48.114;11.442;2023-12-22T00:52:11;0.90;;;0.57;;
14121;SDS011;7139;48.114;11.442;2023-12-22T00:54:38;0.50;;;0.40;;
14121;SDS011;7139;48.114;11.442;2023-12-22T00:57:05;0.57;;;0.57;;
14121;SDS011;7139;48.114;11.442;2023-12-22T00:59:32;0.50;;;0.43;;
14121;SDS011;7139;48.114;11.442;2023-12-22T01:01:59;0.93;;;0.40;;
14121;SDS011;7139;48.114;11.442;2023-12-22T01:04:28;0.53;;;0.53;;
14121;SDS011;7139;48.114;11.442;2023-12-22T01:06:55;0.50;;;0.50;;
14121;SDS011;7139;48.114;11.442;2023-12-22T01:09:22;0.60;;;0.60;;
14121;SDS011;7139;48.114;11.442;2023-12-22T01:11:49;0.60;;;0.60;;
14121;SDS011;7139;48.114;11.442;2023-12-22T01:14:16;0.40;;;0.40;;
14121;SDS011;7139;48.114;11.442;2023-12-22T01:16:43;0.53;;;0.53;;
14121;SDS011;7139;48.114;11.442;2023-12-22T01:19:10;0.50;;;0.50;;
14121;SDS011;7139;48.114;11.442;2023-12-22T01:21:39;1.03;;;0.80;;
14121;SDS011;7139;48.114;11.442;2023-12-22T01:24:07;1.50;;;0.63;;
14121;SDS011;7139;48.114;11.442;2023-12-22T01:26:34;0.50;;;0.50;;
14121;SDS011;7139;48.114;11.442;2023-12-22T01:29:01;1.13;;;0.47;;
14121;SDS011;7139;48.114;11.442;2023-12-22T01:31:28;0.77;;;0.70;;
14121;SDS011;7139;48.114;11.442;2023-12-22T01:33:55;0.77;;;0.50;;
14121;SDS011;7139;48.114;11.442;2023-12-22T01:36:22;0.97;;;0.77;;
14121;SDS011;7139;48.114;11.442;2023-12-22T01:38:50;0.70;;;0.70;;
14121;SDS011;7139;48.114;11.442;2023-12-22T01:41:17;0.80;;;0.80;;
14121;SDS011;7139;48.114;11.442;2023-12-22T01:43:44;0.90;;;0.80;;
14121;SDS011;7139;48.114;11.442;2023-12-22T01:46:12;1.90;;;0.80;;
14121;SDS011;7139;48.114;11.442;2023-12-22T01:48:39;0.80;;;0.80;;
14121;SDS011;7139;48.114;11.442;2023-12-22T01:51:06;0.57;;;0.57;;
14121;SDS011;7139;48.114;11.442;2023-12-22T01:53:33;0.43;;;0.43;;
14121;SDS011;7139;48.114;11.442;2023-12-22T01:56:03;0.50;;;0.50;;
14121;SDS011;7139;48.114;11.442;2023-12-22T01:58:31;0.83;;;0.60;;
14121;SDS011;7139;48.114;11.442;2023-12-22T02:00:59;1.27;;;0.70;;
14121;SDS011;7139;48.114;11.442;2023-12-22T02:03:28;0.50;;;0.50;;
14121;SDS011;7139;48.114;11.442;2023-12-22T02:05:55;0.80;;;0.57;;
14121;SDS011;7139;48.114;11.442;2023-12-22T02:08:22;0.50;;;0.50;;
14121;SDS011;7139;48.114;11.442;2023-12-22T02:10:49;0.50;;;0.50;;
14121;SDS011;7139;48.114;11.442;2023-12-22T02:13:17;0.60;;;0.50;;
14121;SDS011;7139;48.114;11.442;2023-12-22T02:15:45;0.50;;;0.50;;
14121;SDS011;7139;48.114;11.442;2023-12-22T02:18:14;0.77;;;0.57;;
14121;SDS011;7139;48.114;11.442;2023-12-22T02:20:43;0.57;;;0.50;;
14121;SDS011;7139;48.114;11.442;2023-12-22T02:23:12;0.40;;;0.40;;
14121;SDS011;7139;48.114;11.442;2023-12-22T02:25:39;1.30;;;0.50;;
14121;SDS011;7139;48.114;11.442;2023-12-22T02:28:07;0.50;;;0.50;;
14121;SDS011;7139;48.114;11.442;2023-12-22T02:30:37;1.07;;;0.50;;
14121;SDS011;7139;48.114;11.442;2023-12-22T02:33:06;0.63;;;0.50;;
14121;SDS011;7139;48.114;11.442;2023-12-22T02:35:35;0.60;;;0.60;;
14121;SDS011;7139;48.114;11.442;2023-12-22T02:38:03;0.50;;;0.50;;
14121;SDS011;7139;48.114;11.442;2023-12-22T02:40:32;0.40;;;0.40;;
14121;SDS011;7139;48.114;11.442;2023-12-22T02:43:00;0.50;;;0.50;;
14121;SDS011;7139;48.114;11.442;2023-12-22T02:45:27;0.50;;;0.50;;
14121;SDS011;7139;48.114;11.442;2023-12-22T02:47:55;0.53;;;0.43;;
14121;SDS011;7139;48.114;11.442;2023-12-22T02:50:22;0.43;;;0.43;;
14121;SDS011;7139;48.114;11.442;2023-12-22T02:52:49;0.40;;;0.40;;
14121;SDS011;7139;48.114;11.442;2023-12-22T02:55:16;0.40;;;0.40;;
14121;SDS011;7139;48.114;11.442;2023-12-22T02:57:45;0.40;;;0.40;;
14121;SDS011;7139;48.114;11.442;2023-12-22T03:00:12;0.60;;;0.60;;
14121;SDS011;7139;48.114;11.442;2023-12-22T03:02:39;0.40;;;0.40;;
14121;SDS011;7139;48.114;11.442;2023-12-22T03:05:06;0.33;;;0.33;;
14121;SDS011;7139;48.114;11.442;2023-12-22T03:07:33;0.30;;;0.30;;
14121;SDS011;7139;48.114;11.442;2023-12-22T03:10:00;0.40;;;0.40;;
14121;SDS011;7139;48.114;11.442;2023-12-22T03:12:27;0.40;;;0.40;;
14121;SDS011;7139;48.114;11.442;2023-12-22T03:14:56;0.40;;;0.40;;
14121;SDS011;7139;48.114;11.442;2023-12-22T03:17:23;0.53;;;0.43;;
14121;SDS011;7139;48.114;11.442;2023-12-22T03:19:50;0.40;;;0.40;;
14121;SDS011;7139;48.114;11.442;2023-12-22T03:22:17;0.40;;;0.40;;
14121;SDS011;7139;48.114;11.442;2023-12-22T03:24:44;0.30;;;0.30;;
14121;SDS011;7139;48.114;11.442;2023-12-22T03:27:11;2.63;;;2.20;;
14121;SDS011;7139;48.114;11.442;2023-12-22T03:29:41;1.10;;;1.00;;
14121;SDS011;7139;48.114;11.442;2023-12-22T03:32:09;0.43;;;0.43;;
14121;SDS011;7139;48.114;11.442;2023-12-22T03:34:36;0.53;;;0.50;;
14121;SDS011;7139;48.114;11.442;2023-12-22T03:37:03;0.60;;;0.60;;
14121;SDS011;7139;48.114;11.442;2023-12-22T03:39:30;0.70;;;0.60;;
14121;SDS011;7139;48.114;11.442;2023-12-22T03:41:58;0.50;;;0.50;;
14121;SDS011;7139;48.114;11.442;2023-12-22T03:44:25;1.27;;;0.80;;
14121;SDS011;7139;48.114;11.442;2023-12-22T03:46:52;0.83;;;0.70;;
14121;SDS011;7139;48.114;11.442;2023-12-22T03:49:20;0.83;;;0.70;;
14121;SDS011;7139;48.114;11.442;2023-12-22T03:51:47;1.07;;;0.77;;
14121;SDS011;7139;48.114;11.442;2023-12-22T03:54:14;1.37;;;0.97;;
14121;SDS011;7139;48.114;11.442;2023-12-22T03:56:42;1.10;;;0.70;;
14121;SDS011;7139;48.114;11.442;2023-12-22T03:59:09;2.93;;;0.87;;
14121;SDS011;7139;48.114;11.442;2023-12-22T04:01:36;0.70;;;0.60;;
14121;SDS011;7139;48.114;11.442;2023-12-22T04:04:03;0.97;;;0.80;;
14121;SDS011;7139;48.114;11.442;2023-12-22T04:06:32;2.77;;;0.90;;
14121;SDS011;7139;48.114;11.442;2023-12-22T04:09:00;1.57;;;0.70;;
14121;SDS011;7139;48.114;11.442;2023-12-22T04:11:27;0.70;;;0.70;;
14121;SDS011;7139;48.114;11.442;2023-12-22T04:13:54;2.83;;;0.90;;
14121;SDS011;7139;48.114;11.442;2023-12-22T04:16:21;1.47;;;0.80;;
14121;SDS011;7139;48.114;11.442;2023-12-22T04:18:48;2.17;;;0.80;;
14121;SDS011;7139;48.114;11.442;2023-12-22T04:21:15;2.43;;;0.70;;
14121;SDS011;7139;48.114;11.442;2023-12-22T04:23:44;0.93;;;0.70;;
14121;SDS011;7139;48.114;11.442;2023-12-22T04:26:11;2.10;;;0.90;;
14121;SDS011;7139;48.114;11.442;2023-12-22T04:28:38;1.60;;;0.90;;
14121;SDS011;7139;48.114;11.442;2023-12-22T04:31:05;2.47;;;0.90;;
14121;SDS011;7139;48.114;11.442;2023-12-22T04:33:32;2.17;;;0.83;;
14121;SDS011;7139;48.114;11.442;2023-12-22T04:35:59;1.83;;;0.80;;
14121;SDS011;7139;48.114;11.442;2023-12-22T04:38:26;2.47;;;0.90;;
14121;SDS011;7139;48.114;11.442;2023-12-22T04:40:55;1.93;;;0.90;;
14121;SDS011;7139;48.114;11.442;2023-12-22T04:43:22;1.87;;;1.13;;
14121;SDS011;7139;48.114;11.442;2023-12-22T04:45:49;1.47;;;0.90;;
14121;SDS011;7139;48.114;11.442;2023-12-22T04:48:16;1.43;;;0.90;;
14121;SDS011;7139;48.114;11.442;2023-12-22T04:50:43;3.13;;;1.00;;
14121;SDS011;7139;48.114;11.442;2023-12-22T04:53:10;2.20;;;1.10;;
14121;SDS011;7139;48.114;11.442;2023-12-22T04:55:37;1.87;;;1.20;;
14121;SDS011;7139;48.114;11.442;2023-12-22T04:58:05;2.57;;;1.10;;
14121;SDS011;7139;48.114;11.442;2023-12-22T05:00:32;1.60;;;1.03;;
14121;SDS011;7139;48.114;11.442;2023-12-22T05:03:00;2.77;;;1.10;;
14121;SDS011;7139;48.114;11.442;2023-12-22T05:05:27;2.53;;;1.20;;
14121;SDS011;7139;48.114;11.442;2023-12-22T05:07:54;2.57;;;1.33;;
14121;SDS011;7139;48.114;11.442;2023-12-22T05:10:22;3.27;;;1.10;;
14121;SDS011;7139;48.114;11.442;2023-12-22T05:12:49;2.03;;;0.90;;
14121;SDS011;7139;48.114;11.442;2023-12-22T05:15:17;2.57;;;0.90;;
14121;SDS011;7139;48.114;11.442;2023-12-22T05:17:44;1.37;;;1.00;;
14121;SDS011;7139;48.114;11.442;2023-12-22T05:20:11;2.33;;;0.90;;
14121;SDS011;7139;48.114;11.442;2023-12-22T05:22:39;2.80;;;0.97;;
14121;SDS011;7139;48.114;11.442;2023-12-22T05:25:07;2.57;;;1.00;;
14121;SDS011;7139;48.114;11.442;2023-12-22T05:27:35;1.73;;;1.00;;
14121;SDS011;7139;48.114;11.442;2023-12-22T05:30:02;2.67;;;1.10;;
14121;SDS011;7139;48.114;11.442;2023-12-22T05:32:31;2.30;;;0.83;;
14121;SDS011;7139;48.114;11.442;2023-12-22T05:34:58;2.93;;;0.93;;
14121;SDS011;7139;48.114;11.442;2023-12-22T05:37:25;3.27;;;0.73;;
14121;SDS011;7139;48.114;11.442;2023-12-22T05:39:53;1.47;;;1.13;;
14121;SDS011;7139;48.114;11.442;2023-12-22T05:42:20;1.37;;;0.87;;
14121;SDS011;7139;48.114;11.442;2023-12-22T05:44:48;1.13;;;0.90;;
14121;SDS011;7139;48.114;11.442;2023-12-22T05:47:15;2.20;;;0.80;;
14121;SDS011;7139;48.114;11.442;2023-12-22T05:49:43;2.17;;;0.97;;
14121;SDS011;7139;48.114;11.442;2023-12-22T05:52:11;1.80;;;0.87;;
14121;SDS011;7139;48.114;11.442;2023-12-22T05:54:38;2.53;;;0.97;;
14121;SDS011;7139;48.114;11.442;2023-12-22T05:57:04;1.73;;;1.00;;
14121;SDS011;7139;48.114;11.442;2023-12-22T05:59:32;1.07;;;0.80;;
14121;SDS011;7139;48.114;11.442;2023-12-22T06:02:00;1.70;;;1.00;;
14121;SDS011;7139;48.114;11.442;2023-12-22T06:04:27;3.67;;;1.47;;
14121;SDS011;7139;48.114;11.442;2023-12-22T06:06:56;2.90;;;1.13;;
14121;SDS011;7139;48.114;11.442;2023-12-22T06:09:23;3.27;;;1.10;;
14121;SDS011;7139;48.114;11.442;2023-12-22T06:11:50;3.53;;;1.40;;
14121;SDS011;7139;48.114;11.442;2023-12-22T06:14:17;2.37;;;1.20;;
14121;SDS011;7139;48.114;11.442;2023-12-22T06:16:44;3.97;;;1.20;;
14121;SDS011;7139;48.114;11.442;2023-12-22T06:19:11;2.67;;;1.40;;
14121;SDS011;7139;48.114;11.442;2023-12-22T06:21:39;2.90;;;1.37;;
14121;SDS011;7139;48.114;11.442;2023-12-22T06:24:07;2.43;;;1.20;;
14121;SDS011;7139;48.114;11.442;2023-12-22T06:26:34;3.53;;;1.20;;
14121;SDS011;7139;48.114;11.442;2023-12-22T06:29:02;3.03;;;1.30;;
14121;SDS011;7139;48.114;11.442;2023-12-22T06:31:29;3.27;;;1.30;;
14121;SDS011;7139;48.114;11.442;2023-12-22T06:33:56;2.67;;;1.30;;
14121;SDS011;7139;48.114;11.442;2023-12-22T06:36:27;2.60;;;1.17;;
14121;SDS011;7139;48.114;11.442;2023-12-22T06:38:54;2.00;;;1.03;;
14121;SDS011;7139;48.114;11.442;2023-12-22T06:41:24;1.73;;;1.20;;
14121;SDS011;7139;48.114;11.442;2023-12-22T06:43:52;2.93;;;1.10;;
14121;SDS011;7139;48.114;11.442;2023-12-22T06:46:19;1.47;;;1.00;;
14121;SDS011;7139;48.114;11.442;2023-12-22T06:48:47;3.97;;;1.10;;
14121;SDS011;7139;48.114;11.442;2023-12-22T06:51:17;2.20;;;1.10;;
14121;SDS011;7139;48.114;11.442;2023-12-22T06:53:45;3.13;;;1.27;;
14121;SDS011;7139;48.114;11.442;2023-12-22T06:56:16;2.17;;;1.20;;
14121;SDS011;7139;48.114;11.442;2023-12-22T06:58:44;1.80;;;1.33;;
14121;SDS011;7139;48.114;11.442;2023-12-22T07:01:12;3.57;;;1.57;;
14121;SDS011;7139;48.114;11.442;2023-12-22T07:03:39;2.93;;;1.00;;
14121;SDS011;7139;48.114;11.442;2023-12-22T07:06:06;2.27;;;1.10;;
14121;SDS011;7139;48.114;11.442;2023-12-22T07:08:33;1.97;;;0.90;;
14121;SDS011;7139;48.114;11.442;2023-12-22T07:11:00;1.83;;;0.97;;
14121;SDS011;7139;48.114;11.442;2023-12-22T07:13:27;1.53;;;1.00;;
14121;SDS011;7139;48.114;11.442;2023-12-22T07:15:55;2.37;;;1.10;;
14121;SDS011;7139;48.114;11.442;2023-12-22T07:18:22;2.73;;;1.13;;
14121;SDS011;7139;48.114;11.442;2023-12-22T07:20:50;3.50;;;1.57;;
14121;SDS011;7139;48.114;11.442;2023-12-22T07:23:17;3.73;;;1.37;;
14121;SDS011;7139;48.114;11.442;2023-12-22T07:25:44;3.43;;;1.83;;
14121;SDS011;7139;48.114;11.442;2023-12-22T07:28:11;3.47;;;1.30;;
14121;SDS011;7139;48.114;11.442;2023-12-22T07:30:38;3.10;;;1.40;;
14121;SDS011;7139;48.114;11.442;2023-12-22T07:33:07;4.37;;;1.50;;
14121;SDS011;7139;48.114;11.442;2023-12-22T07:35:34;4.17;;;1.50;;
14121;SDS011;7139;48.114;11.442;2023-12-22T07:38:01;4.70;;;1.63;;
14121;SDS011;7139;48.114;11.442;2023-12-22T07:40:28;2.30;;;0.90;;
14121;SDS011;7139;48.114;11.442;2023-12-22T07:42:56;3.80;;;1.77;;
14121;SDS011;7139;48.114;11.442;2023-12-22T07:45:23;4.50;;;1.90;;
14121;SDS011;7139;48.114;11.442;2023-12-22T07:47:50;3.37;;;1.33;;
14121;SDS011;7139;48.114;11.442;2023-12-22T07:50:18;3.70;;;1.47;;
14121;SDS011;7139;48.114;11.442;2023-12-22T07:52:46;4.13;;;1.47;;
14121;SDS011;7139;48.114;11.442;2023-12-22T07:55:15;5.07;;;1.30;;
14121;SDS011;7139;48.114;11.442;2023-12-22T07:57:43;5.47;;;1.90;;
14121;SDS011;7139;48.114;11.442;2023-12-22T08:00:11;2.47;;;1.40;;
14121;SDS011;7139;48.114;11.442;2023-12-22T08:02:39;2.57;;;1.23;;
14121;SDS011;7139;48.114;11.442;2023-12-22T08:05:06;3.10;;;1.30;;
14121;SDS011;7139;48.114;11.442;2023-12-22T08:07:34;2.00;;;1.40;;
14121;SDS011;7139;48.114;11.442;2023-12-22T08:10:01;4.87;;;1.50;;
14121;SDS011;7139;48.114;11.442;2023-12-22T08:12:29;1.63;;;1.20;;
14121;SDS011;7139;48.114;11.442;2023-12-22T08:14:57;2.97;;;1.50;;
14121;SDS011;7139;48.114;11.442;2023-12-22T08:17:24;6.00;;;1.60;;
14121;SDS011;7139;48.114;11.442;2023-12-22T08:19:51;4.83;;;1.60;;
14121;SDS011;7139;48.114;11.442;2023-12-22T08:22:18;2.73;;;1.43;;
14121;SDS011;7139;48.114;11.442;2023-12-22T08:24:46;3.47;;;1.70;;
14121;SDS011;7139;48.114;11.442;2023-12-22T08:27:13;3.73;;;1.77;;
14121;SDS011;7139;48.114;11.442;2023-12-22T08:29:40;4.30;;;1.70;;
14121;SDS011;7139;48.114;11.442;2023-12-22T08:32:08;3.67;;;1.40;;
14121;SDS011;7139;48.114;11.442;2023-12-22T08:34:35;2.00;;;1.20;;
14121;SDS011;7139;48.114;11.442;2023-12-22T08:37:02;3.53;;;1.40;;
14121;SDS011;7139;48.114;11.442;2023-12-22T08:39:29;3.13;;;1.80;;
14121;SDS011;7139;48.114;11.442;2023-12-22T08:41:58;4.33;;;1.73;;
14121;SDS011;7139;48.114;11.442;2023-12-22T08:44:25;2.50;;;0.90;;
14121;SDS011;7139;48.114;11.442;2023-12-22T08:46:52;3.07;;;1.53;;
14121;SDS011;7139;48.114;11.442;2023-12-22T08:49:19;1.57;;;1.17;;
14121;SDS011;7139;48.114;11.442;2023-12-22T08:51:47;3.23;;;1.23;;
14121;SDS011;7139;48.114;11.442;2023-12-22T08:54:14;4.37;;;1.50;;
14121;SDS011;7139;48.114;11.442;2023-12-22T08:56:41;2.60;;;1.40;;
14121;SDS011;7139;48.114;11.442;2023-12-22T08:59:10;3.43;;;1.50;;
14121;SDS011;7139;48.114;11.442;2023-12-22T09:01:37;3.23;;;1.67;;
14121;SDS011;7139;48.114;11.442;2023-12-22T09:04:06;5.30;;;1.40;;
14121;SDS011;7139;48.114;11.442;2023-12-22T09:06:33;3.47;;;1.10;;
14121;SDS011;7139;48.114;11.442;2023-12-22T09:09:00;3.20;;;1.27;;
14121;SDS011;7139;48.114;11.442;2023-12-22T09:11:28;4.93;;;1.53;;
14121;SDS011;7139;48.114;11.442;2023-12-22T09:13:55;4.00;;;1.47;;
14121;SDS011;7139;48.114;11.442;2023-12-22T09:16:24;5.23;;;1.50;;
14121;SDS011;7139;48.114;11.442;2023-12-22T09:18:51;4.33;;;1.80;;
14121;SDS011;7139;48.114;11.442;2023-12-22T09:21:18;2.30;;;1.50;;
14121;SDS011;7139;48.114;11.442;2023-12-22T09:23:45;2.67;;;1.60;;
14121;SDS011;7139;48.114;11.442;2023-12-22T09:26:13;3.17;;;1.50;;
14121;SDS011;7139;48.114;11.442;2023-12-22T09:28:40;3.33;;;1.40;;
14121;SDS011;7139;48.114;11.442;2023-12-22T09:31:07;2.33;;;1.33;;
14121;SDS011;7139;48.114;11.442;2023-12-22T09:33:35;2.50;;;1.47;;
14121;SDS011;7139;48.114;11.442;2023-12-22T09:36:03;3.70;;;1.37;;
14121;SDS011;7139;48.114;11.442;2023-12-22T09:38:30;3.27;;;1.17;;
14121;SDS011;7139;48.114;11.442;2023-12-22T09:40:57;2.63;;;1.10;;
14121;SDS011;7139;48.114;11.442;2023-12-22T09:43:25;1.10;;;0.90;;
14121;SDS011;7139;48.114;11.442;2023-12-22T09:45:52;1.83;;;1.10;;
14121;SDS011;7139;48.114;11.442;2023-12-22T09:48:20;3.77;;;1.23;;
14121;SDS011;7139;48.114;11.442;2023-12-22T09:50:53;1.60;;;1.00;;
14121;SDS011;7139;48.114;11.442;2023-12-22T09:53:20;1.63;;;0.93;;
14121;SDS011;7139;48.114;11.442;2023-12-22T09:55:49;1.73;;;1.00;;
14121;SDS011;7139;48.114;11.442;2023-12-22T09:58:16;2.17;;;0.80;;
14121;SDS011;7139;48.114;11.442;2023-12-22T10:00:43;2.47;;;1.30;;
14121;SDS011;7139;48.114;11.442;2023-12-22T10:03:11;2.20;;;1.57;;
14121;SDS011;7139;48.114;11.442;2023-12-22T10:05:39;1.13;;;1.03;;
14121;SDS011;7139;48.114;11.442;2023-12-22T10:08:09;3.17;;;2.07;;
14121;SDS011;7139;48.114;11.442;2023-12-22T10:10:37;4.33;;;3.60;;
14121;SDS011;7139;48.114;11.442;2023-12-22T10:13:05;3.17;;;1.13;;
14121;SDS011;7139;48.114;11.442;2023-12-22T10:15:35;2.40;;;0.90;;
14121;SDS011;7139;48.114;11.442;2023-12-22T10:18:02;0.70;;;0.70;;
14121;SDS011;7139;48.114;11.442;2023-12-22T10:20:30;1.83;;;1.10;;
14121;SDS011;7139;48.114;11.442;2023-12-22T10:22:57;1.07;;;0.80;;
14121;SDS011;7139;48.114;11.442;2023-12-22T10:25:28;1.03;;;0.80;;
14121;SDS011;7139;48.114;11.442;2023-12-22T10:27:55;0.80;;;0.80;;
14121;SDS011;7139;48.114;11.442;2023-12-22T10:30:22;2.50;;;1.00;;
14121;SDS011;7139;48.114;11.442;2023-12-22T10:32:50;1.00;;;0.80;;
14121;SDS011;7139;48.114;11.442;2023-12-22T10:35:17;1.23;;;0.73;;
14121;SDS011;7139;48.114;11.442;2023-12-22T10:37:45;0.83;;;0.83;;
14121;SDS011;7139;48.114;11.442;2023-12-22T10:40:12;1.50;;;0.90;;
14121;SDS011;7139;48.114;11.442;2023-12-22T10:42:41;1.93;;;0.97;;
14121;SDS011;7139;48.114;11.442;2023-12-22T10:45:08;1.70;;;1.20;;
14121;SDS011;7139;48.114;11.442;2023-12-22T10:47:37;3.33;;;1.27;;
14121;SDS011;7139;48.114;11.442;2023-12-22T10:50:05;2.63;;;1.60;;
14121;SDS011;7139;48.114;11.442;2023-12-22T10:52:33;2.07;;;1.20;;
14121;SDS011;7139;48.114;11.442;2023-12-22T10:55:07;3.40;;;2.07;;
14121;SDS011;7139;48.114;11.442;2023-12-22T10:57:35;3.90;;;1.37;;
14121;SDS011;7139;48.114;11.442;2023-12-22T11:00:05;2.60;;;1.50;;
14121;SDS011;7139;48.114;11.442;2023-12-22T11:02:33;3.63;;;1.63;;
14121;SDS011;7139;48.114;11.442;2023-12-22T11:05:02;1.93;;;0.83;;
14121;SDS011;7139;48.114;11.442;2023-12-22T11:07:30;2.67;;;1.40;;
14121;SDS011;7139;48.114;11.442;2023-12-22T11:10:00;3.63;;;1.63;;
14121;SDS011;7139;48.114;11.442;2023-12-22T11:12:28;5.00;;;2.50;;
14121;SDS011;7139;48.114;11.442;2023-12-22T11:14:58;2.53;;;1.20;;
14121;SDS011;7139;48.114;11.442;2023-12-22T11:17:26;5.57;;;1.73;;
14121;SDS011;7139;48.114;11.442;2023-12-22T11:19:55;2.40;;;1.07;;
14121;SDS011;7139;48.114;11.442;2023-12-22T11:22:22;2.70;;;1.23;;
14121;SDS011;7139;48.114;11.442;2023-12-22T11:24:50;2.07;;;1.43;;
14121;SDS011;7139;48.114;11.442;2023-12-22T11:27:18;4.57;;;1.53;;
14121;SDS011;7139;48.114;11.442;2023-12-22T11:29:45;2.33;;;1.33;;
14121;SDS011;7139;48.114;11.442;2023-12-22T11:32:14;2.50;;;1.23;;
14121;SDS011;7139;48.114;11.442;2023-12-22T11:34:43;3.20;;;1.50;;
14121;SDS011;7139;48.114;11.442;2023-12-22T11:37:11;3.03;;;1.47;;
14121;SDS011;7139;48.114;11.442;2023-12-22T11:39:39;3.03;;;1.23;;
14121;SDS011;7139;48.114;11.442;2023-12-22T11:42:06;2.83;;;1.60;;
14121;SDS011;7139;48.114;11.442;2023-12-22T11:44:34;2.40;;;1.17;;
14121;SDS011;7139;48.114;11.442;2023-12-22T11:47:04;2.67;;;1.50;;
14121;SDS011;7139;48.114;11.442;2023-12-22T11:49:32;3.23;;;2.20;;
14121;SDS011;7139;48.114;11.442;2023-12-22T11:52:02;2.70;;;1.80;;
14121;SDS011;7139;48.114;11.442;2023-12-22T11:54:45;2.83;;;1.27;;
14121;SDS011;7139;48.114;11.442;2023-12-22T12:00:07;3.73;;;1.33;;
14121;SDS011;7139;48.114;11.442;2023-12-22T12:02:37;3.17;;;1.30;;
14121;SDS011;7139;48.114;11.442;2023-12-22T12:05:04;3.17;;;1.70;;
14121;SDS011;7139;48.114;11.442;2023-12-22T12:07:38;2.00;;;1.33;;
14121;SDS011;7139;48.114;11.442;2023-12-22T12:10:04;1.57;;;1.13;;
14121;SDS011;7139;48.114;11.442;2023-12-22T12:12:32;2.73;;;1.40;;
14121;SDS011;7139;48.114;11.442;2023-12-22T12:15:04;3.93;;;1.60;;
14121;SDS011;7139;48.114;11.442;2023-12-22T12:17:33;1.77;;;1.33;;
14121;SDS011;7139;48.114;11.442;2023-12-22T12:20:01;4.80;;;1.50;;
14121;SDS011;7139;48.114;11.442;2023-12-22T12:22:28;3.30;;;1.60;;
14121;SDS011;7139;48.114;11.442;2023-12-22T12:24:58;4.83;;;1.73;;
14121;SDS011;7139;48.114;11.442;2023-12-22T12:27:26;3.27;;;1.50;;
14121;SDS011;7139;48.114;11.442;2023-12-22T12:29:53;6.33;;;3.80;;
14121;SDS011;7139;48.114;11.442;2023-12-22T12:32:22;4.00;;;1.60;;
14121;SDS011;7139;48.114;11.442;2023-12-22T12:34:50;5.87;;;1.70;;
14121;SDS011;7139;48.114;11.442;2023-12-22T12:37:18;3.67;;;1.50;;
14121;SDS011;7139;48.114;11.442;2023-12-22T12:39:45;3.80;;;1.50;;
14121;SDS011;7139;48.114;11.442;2023-12-22T12:42:15;3.33;;;1.50;;
14121;SDS011;7139;48.114;11.442;2023-12-22T12:44:42;3.13;;;1.60;;
14121;SDS011;7139;48.114;11.442;2023-12-22T12:47:11;4.87;;;1.60;;
14121;SDS011;7139;48.114;11.442;2023-12-22T12:49:38;4.87;;;1.60;;
14121;SDS011;7139;48.114;11.442;2023-12-22T12:52:05;5.70;;;1.53;;
14121;SDS011;7139;48.114;11.442;2023-12-22T12:54:32;3.77;;;1.40;;
14121;SDS011;7139;48.114;11.442;2023-12-22T12:56:59;2.50;;;1.40;;
14121;SDS011;7139;48.114;11.442;2023-12-22T12:59:28;2.83;;;1.20;;
14121;SDS011;7139;48.114;11.442;2023-12-22T13:01:55;3.80;;;1.53;;
14121;SDS011;7139;48.114;11.442;2023-12-22T13:04:23;3.73;;;1.37;;
14121;SDS011;7139;48.114;11.442;2023-12-22T13:06:50;1.40;;;0.90;;
14121;SDS011;7139;48.114;11.442;2023-12-22T13:09:17;3.07;;;1.40;;
14121;SDS011;7139;48.114;11.442;2023-12-22T13:11:45;2.43;;;1.50;;
14121;SDS011;7139;48.114;11.442;2023-12-22T13:14:13;4.13;;;1.57;;
14121;SDS011;7139;48.114;11.442;2023-12-22T13:16:50;1.90;;;1.33;;
14121;SDS011;7139;48.114;11.442;2023-12-22T13:19:18;2.37;;;1.27;;
14121;SDS011;7139;48.114;11.442;2023-12-22T13:21:45;3.03;;;1.60;;
14121;SDS011;7139;48.114;11.442;2023-12-22T13:24:13;2.23;;;1.60;;
14121;SDS011;7139;48.114;11.442;2023-12-22T13:26:41;3.47;;;1.70;;
14121;SDS011;7139;48.114;11.442;2023-12-22T13:29:08;5.40;;;1.60;;
14121;SDS011;7139;48.114;11.442;2023-12-22T13:31:36;2.87;;;1.20;;
14121;SDS011;7139;48.114;11.442;2023-12-22T13:34:09;2.17;;;1.60;;
14121;SDS011;7139;48.114;11.442;2023-12-22T13:36:36;5.47;;;1.60;;
14121;SDS011;7139;48.114;11.442;2023-12-22T13:39:03;3.63;;;1.40;;
14121;SDS011;7139;48.114;11.442;2023-12-22T13:41:31;2.57;;;1.43;;
14121;SDS011;7139;48.114;11.442;2023-12-22T13:44:02;1.50;;;1.13;;
14121;SDS011;7139;48.114;11.442;2023-12-22T13:46:29;2.60;;;1.40;;
14121;SDS011;7139;48.114;11.442;2023-12-22T13:48:56;2.93;;;1.40;;
14121;SDS011;7139;48.114;11.442;2023-12-22T13:51:25;4.27;;;2.10;;
14121;SDS011;7139;48.114;11.442;2023-12-22T13:53:52;2.53;;;1.37;;
14121;SDS011;7139;48.114;11.442;2023-12-22T13:56:19;2.37;;;1.40;;
14121;SDS011;7139;48.114;11.442;2023-12-22T13:58:46;2.60;;;1.53;;
14121;SDS011;7139;48.114;11.442;2023-12-22T14:01:14;2.60;;;1.30;;
14121;SDS011;7139;48.114;11.442;2023-12-22T14:03:41;5.47;;;1.37;;
14121;SDS011;7139;48.114;11.442;2023-12-22T14:06:09;1.47;;;1.10;;
14121;SDS011;7139;48.114;11.442;2023-12-22T14:08:38;1.47;;;1.20;;
14121;SDS011;7139;48.114;11.442;2023-12-22T14:11:06;2.77;;;1.50;;
14121;SDS011;7139;48.114;11.442;2023-12-22T14:13:33;1.77;;;1.10;;
14121;SDS011;7139;48.114;11.442;2023-12-22T14:16:04;2.27;;;1.33;;
14121;SDS011;7139;48.114;11.442;2023-12-22T14:18:31;1.53;;;1.27;;
14121;SDS011;7139;48.114;11.442;2023-12-22T14:20:58;1.10;;;1.00;;
14121;SDS011;7139;48.114;11.442;2023-12-22T14:23:25;1.47;;;0.90;;
14121;SDS011;7139;48.114;11.442;2023-12-22T14:25:54;3.13;;;1.43;;
14121;SDS011;7139;48.114;11.442;2023-12-22T14:28:21;2.43;;;1.40;;
14121;SDS011;7139;48.114;11.442;2023-12-22T14:30:48;1.87;;;1.07;;
14121;SDS011;7139;48.114;11.442;2023-12-22T14:33:16;1.40;;;1.30;;
14121;SDS011;7139;48.114;11.442;2023-12-22T14:35:43;3.07;;;1.17;;
14121;SDS011;7139;48.114;11.442;2023-12-22T14:38:10;4.03;;;2.70;;
14121;SDS011;7139;48.114;11.442;2023-12-22T14:40:37;1.77;;;1.07;;
14121;SDS011;7139;48.114;11.442;2023-12-22T14:43:06;3.53;;;2.10;;
14121;SDS011;7139;48.114;11.442;2023-12-22T14:45:33;2.20;;;1.53;;
14121;SDS011;7139;48.114;11.442;2023-12-22T14:48:00;1.20;;;1.10;;
14121;SDS011;7139;48.114;11.442;2023-12-22T14:50:27;0.70;;;0.70;;
14121;SDS011;7139;48.114;11.442;2023-12-22T14:52:54;3.90;;;1.13;;